sensor_id;sensor_type;location;lat;lon;timestamp;P1;durP1;ratioP1;P2;durP2;ratioP2
36191;SDS011;22233;42.708;23.360;2022-09-30T00:01:15;14.80;;;9.13;;
36191;SDS011;22233;42.708;23.360;2022-09-30T00:03:40;11.13;;;9.07;;
36191;SDS011;22233;42.708;23.360;2022-09-30T00:06:06;12.65;;;8.73;;
36191;SDS011;22233;42.708;23.360;2022-09-30T00:08:31;13.48;;;9.18;;
36191;SDS011;22233;42.708;23.360;2022-09-30T00:11:07;10.88;;;8.73;;
36191;SDS011;22233;42.708;23.360;2022-09-30T00:13:37;10.48;;;8.95;;
36191;SDS011;22233;42.708;23.360;2022-09-30T00:16:04;10.93;;;8.75;;
36191;SDS011;22233;42.708;23.360;2022-09-30T00:18:31;9.70;;;8.00;;
36191;SDS011;22233;42.708;23.360;2022-09-30T00:20:57;7.90;;;7.10;;
36191;SDS011;22233;42.708;23.360;2022-09-30T00:23:23;10.32;;;7.20;;
36191;SDS011;22233;42.708;23.360;2022-09-30T00:25:49;9.20;;;6.85;;
36191;SDS011;22233;42.708;23.360;2022-09-30T00:28:15;10.07;;;5.80;;
36191;SDS011;22233;42.708;23.360;2022-09-30T00:30:41;8.95;;;6.03;;
36191;SDS011;22233;42.708;23.360;2022-09-30T00:33:08;7.00;;;6.30;;
36191;SDS011;22233;42.708;23.360;2022-09-30T00:35:35;6.95;;;6.25;;
36191;SDS011;22233;42.708;23.360;2022-09-30T00:38:00;10.75;;;6.65;;
36191;SDS011;22233;42.708;23.360;2022-09-30T00:40:26;9.02;;;6.20;;
36191;SDS011;22233;42.708;23.360;2022-09-30T00:42:51;7.30;;;5.88;;
36191;SDS011;22233;42.708;23.360;2022-09-30T00:45:17;7.38;;;5.55;;
36191;SDS011;22233;42.708;23.360;2022-09-30T00:58:41;5.85;;;5.30;;
36191;SDS011;22233;42.708;23.360;2022-09-30T01:01:08;6.20;;;5.40;;
36191;SDS011;22233;42.708;23.360;2022-09-30T01:03:35;8.25;;;5.50;;
36191;SDS011;22233;42.708;23.360;2022-09-30T01:06:14;7.88;;;5.65;;
36191;SDS011;22233;42.708;23.360;2022-09-30T01:08:41;7.32;;;5.43;;
36191;SDS011;22233;42.708;23.360;2022-09-30T01:11:07;10.57;;;6.28;;
36191;SDS011;22233;42.708;23.360;2022-09-30T01:13:33;8.48;;;5.63;;
36191;SDS011;22233;42.708;23.360;2022-09-30T01:22:18;8.43;;;5.90;;
36191;SDS011;22233;42.708;23.360;2022-09-30T01:30:54;6.80;;;6.10;;
36191;SDS011;22233;42.708;23.360;2022-09-30T01:33:39;8.98;;;6.05;;
36191;SDS011;22233;42.708;23.360;2022-09-30T01:38:48;11.80;;;6.57;;
36191;SDS011;22233;42.708;23.360;2022-09-30T01:46:36;6.43;;;5.83;;
36191;SDS011;22233;42.708;23.360;2022-09-30T01:49:19;6.18;;;5.30;;
36191;SDS011;22233;42.708;23.360;2022-09-30T01:54:47;6.93;;;6.22;;
36191;SDS011;22233;42.708;23.360;2022-09-30T01:57:30;7.32;;;5.95;;
36191;SDS011;22233;42.708;23.360;2022-09-30T02:00:06;6.70;;;5.93;;
36191;SDS011;22233;42.708;23.360;2022-09-30T02:02:37;6.55;;;5.60;;
36191;SDS011;22233;42.708;23.360;2022-09-30T02:05:10;6.85;;;6.18;;
36191;SDS011;22233;42.708;23.360;2022-09-30T02:07:44;10.75;;;6.10;;
36191;SDS011;22233;42.708;23.360;2022-09-30T02:10:19;7.85;;;6.30;;
36191;SDS011;22233;42.708;23.360;2022-09-30T02:12:46;6.97;;;6.13;;
36191;SDS011;22233;42.708;23.360;2022-09-30T02:15:20;7.68;;;6.85;;
36191;SDS011;22233;42.708;23.360;2022-09-30T02:17:53;9.77;;;7.10;;
36191;SDS011;22233;42.708;23.360;2022-09-30T02:20:32;11.13;;;7.50;;
36191;SDS011;22233;42.708;23.360;2022-09-30T02:23:05;10.85;;;7.50;;
36191;SDS011;22233;42.708;23.360;2022-09-30T02:25:37;16.23;;;7.82;;
36191;SDS011;22233;42.708;23.360;2022-09-30T02:28:07;28.63;;;8.60;;
36191;SDS011;22233;42.708;23.360;2022-09-30T02:30:38;17.48;;;9.13;;
36191;SDS011;22233;42.708;23.360;2022-09-30T02:33:11;22.20;;;9.07;;
36191;SDS011;22233;42.708;23.360;2022-09-30T02:35:43;50.40;;;9.35;;
36191;SDS011;22233;42.708;23.360;2022-09-30T02:38:17;54.63;;;11.35;;
36191;SDS011;22233;42.708;23.360;2022-09-30T02:40:46;47.40;;;9.95;;
36191;SDS011;22233;42.708;23.360;2022-09-30T02:43:17;49.80;;;11.30;;
36191;SDS011;22233;42.708;23.360;2022-09-30T02:45:55;39.00;;;10.88;;
36191;SDS011;22233;42.708;23.360;2022-09-30T02:48:43;34.22;;;11.20;;
36191;SDS011;22233;42.708;23.360;2022-09-30T02:54:19;38.13;;;9.23;;
36191;SDS011;22233;42.708;23.360;2022-09-30T02:59:19;19.00;;;8.40;;
36191;SDS011;22233;42.708;23.360;2022-09-30T03:01:46;40.35;;;10.48;;
36191;SDS011;22233;42.708;23.360;2022-09-30T03:04:13;88.25;;;12.07;;
36191;SDS011;22233;42.708;23.360;2022-09-30T03:09:05;168.63;;;14.27;;
36191;SDS011;22233;42.708;23.360;2022-09-30T03:11:31;117.28;;;12.38;;
36191;SDS011;22233;42.708;23.360;2022-09-30T03:14:09;123.90;;;14.10;;
36191;SDS011;22233;42.708;23.360;2022-09-30T03:30:17;128.77;;;14.27;;
36191;SDS011;22233;42.708;23.360;2022-09-30T03:46:01;82.90;;;12.52;;
36191;SDS011;22233;42.708;23.360;2022-09-30T03:48:54;173.52;;;15.98;;
36191;SDS011;22233;42.708;23.360;2022-09-30T03:51:23;115.22;;;14.63;;
36191;SDS011;22233;42.708;23.360;2022-09-30T03:53:53;103.22;;;13.60;;
36191;SDS011;22233;42.708;23.360;2022-09-30T03:56:27;121.82;;;15.18;;
36191;SDS011;22233;42.708;23.360;2022-09-30T03:58:54;197.45;;;20.08;;
36191;SDS011;22233;42.708;23.360;2022-09-30T04:01:20;83.20;;;13.57;;
36191;SDS011;22233;42.708;23.360;2022-09-30T04:03:50;91.25;;;14.50;;
36191;SDS011;22233;42.708;23.360;2022-09-30T04:06:18;112.85;;;16.25;;
36191;SDS011;22233;42.708;23.360;2022-09-30T04:08:48;63.72;;;14.93;;
36191;SDS011;22233;42.708;23.360;2022-09-30T04:11:14;53.50;;;15.23;;
36191;SDS011;22233;42.708;23.360;2022-09-30T04:13:40;68.30;;;14.93;;
36191;SDS011;22233;42.708;23.360;2022-09-30T04:16:06;65.30;;;14.13;;
36191;SDS011;22233;42.708;23.360;2022-09-30T04:18:35;186.25;;;19.52;;
36191;SDS011;22233;42.708;23.360;2022-09-30T04:21:05;121.07;;;18.20;;
36191;SDS011;22233;42.708;23.360;2022-09-30T04:23:36;69.13;;;15.65;;
36191;SDS011;22233;42.708;23.360;2022-09-30T04:26:02;49.25;;;15.63;;
36191;SDS011;22233;42.708;23.360;2022-09-30T04:28:29;119.22;;;16.33;;
36191;SDS011;22233;42.708;23.360;2022-09-30T04:30:57;70.53;;;16.15;;
36191;SDS011;22233;42.708;23.360;2022-09-30T04:33:23;75.38;;;17.40;;
36191;SDS011;22233;42.708;23.360;2022-09-30T04:35:52;90.13;;;19.13;;
36191;SDS011;22233;42.708;23.360;2022-09-30T04:38:19;202.35;;;22.17;;
36191;SDS011;22233;42.708;23.360;2022-09-30T04:40:44;138.43;;;18.52;;
36191;SDS011;22233;42.708;23.360;2022-09-30T04:43:10;98.93;;;18.35;;
36191;SDS011;22233;42.708;23.360;2022-09-30T04:45:35;205.02;;;25.20;;
36191;SDS011;22233;42.708;23.360;2022-09-30T04:48:00;144.80;;;28.17;;
36191;SDS011;22233;42.708;23.360;2022-09-30T04:50:26;130.13;;;24.15;;
36191;SDS011;22233;42.708;23.360;2022-09-30T04:52:51;91.00;;;19.88;;
36191;SDS011;22233;42.708;23.360;2022-09-30T04:55:16;122.63;;;22.48;;
36191;SDS011;22233;42.708;23.360;2022-09-30T04:57:42;81.97;;;20.80;;
36191;SDS011;22233;42.708;23.360;2022-09-30T05:00:09;45.65;;;20.05;;
36191;SDS011;22233;42.708;23.360;2022-09-30T05:02:35;69.68;;;20.17;;
36191;SDS011;22233;42.708;23.360;2022-09-30T05:05:01;91.75;;;20.30;;
36191;SDS011;22233;42.708;23.360;2022-09-30T05:07:27;110.28;;;21.40;;
36191;SDS011;22233;42.708;23.360;2022-09-30T05:09:55;239.85;;;29.80;;
36191;SDS011;22233;42.708;23.360;2022-09-30T05:12:20;106.25;;;22.13;;
36191;SDS011;22233;42.708;23.360;2022-09-30T05:14:46;156.70;;;25.10;;
36191;SDS011;22233;42.708;23.360;2022-09-30T05:17:11;102.75;;;23.77;;
36191;SDS011;22233;42.708;23.360;2022-09-30T05:19:36;87.63;;;23.90;;
36191;SDS011;22233;42.708;23.360;2022-09-30T05:22:02;115.90;;;23.27;;
36191;SDS011;22233;42.708;23.360;2022-09-30T05:24:27;86.05;;;23.83;;
36191;SDS011;22233;42.708;23.360;2022-09-30T05:26:54;91.05;;;24.38;;
36191;SDS011;22233;42.708;23.360;2022-09-30T05:29:20;76.72;;;21.58;;
36191;SDS011;22233;42.708;23.360;2022-09-30T05:31:46;79.82;;;21.63;;
36191;SDS011;22233;42.708;23.360;2022-09-30T05:34:11;54.35;;;20.10;;
36191;SDS011;22233;42.708;23.360;2022-09-30T05:36:37;51.88;;;16.45;;
36191;SDS011;22233;42.708;23.360;2022-09-30T05:39:03;56.45;;;17.15;;
36191;SDS011;22233;42.708;23.360;2022-09-30T05:41:29;64.45;;;18.30;;
36191;SDS011;22233;42.708;23.360;2022-09-30T05:43:54;51.60;;;17.55;;
36191;SDS011;22233;42.708;23.360;2022-09-30T05:46:21;80.95;;;22.40;;
36191;SDS011;22233;42.708;23.360;2022-09-30T05:48:46;61.53;;;22.73;;
36191;SDS011;22233;42.708;23.360;2022-09-30T05:51:11;62.28;;;23.38;;
36191;SDS011;22233;42.708;23.360;2022-09-30T05:53:37;54.85;;;23.02;;
36191;SDS011;22233;42.708;23.360;2022-09-30T05:56:06;71.30;;;23.20;;
36191;SDS011;22233;42.708;23.360;2022-09-30T05:58:33;69.78;;;24.27;;
36191;SDS011;22233;42.708;23.360;2022-09-30T06:01:07;55.47;;;22.63;;
36191;SDS011;22233;42.708;23.360;2022-09-30T06:03:35;41.03;;;21.70;;
36191;SDS011;22233;42.708;23.360;2022-09-30T06:06:02;32.10;;;18.95;;
36191;SDS011;22233;42.708;23.360;2022-09-30T06:08:28;43.35;;;20.83;;
36191;SDS011;22233;42.708;23.360;2022-09-30T06:10:54;46.45;;;19.70;;
36191;SDS011;22233;42.708;23.360;2022-09-30T06:13:23;39.03;;;20.45;;
36191;SDS011;22233;42.708;23.360;2022-09-30T06:15:57;29.38;;;19.70;;
36191;SDS011;22233;42.708;23.360;2022-09-30T06:18:24;33.30;;;20.20;;
36191;SDS011;22233;42.708;23.360;2022-09-30T06:20:51;31.48;;;20.40;;
36191;SDS011;22233;42.708;23.360;2022-09-30T06:23:17;34.47;;;21.90;;
36191;SDS011;22233;42.708;23.360;2022-09-30T06:25:42;33.30;;;21.33;;
36191;SDS011;22233;42.708;23.360;2022-09-30T06:28:09;31.63;;;19.20;;
36191;SDS011;22233;42.708;23.360;2022-09-30T06:30:34;30.42;;;20.35;;
36191;SDS011;22233;42.708;23.360;2022-09-30T06:33:00;39.75;;;20.80;;
36191;SDS011;22233;42.708;23.360;2022-09-30T06:35:25;32.20;;;21.48;;
36191;SDS011;22233;42.708;23.360;2022-09-30T06:37:53;29.60;;;19.35;;
36191;SDS011;22233;42.708;23.360;2022-09-30T06:40:18;38.95;;;21.20;;
36191;SDS011;22233;42.708;23.360;2022-09-30T06:42:48;36.70;;;20.92;;
36191;SDS011;22233;42.708;23.360;2022-09-30T06:45:14;34.70;;;21.42;;
36191;SDS011;22233;42.708;23.360;2022-09-30T06:47:42;31.40;;;20.23;;
36191;SDS011;22233;42.708;23.360;2022-09-30T06:50:08;30.13;;;19.20;;
36191;SDS011;22233;42.708;23.360;2022-09-30T06:52:34;32.10;;;17.95;;
36191;SDS011;22233;42.708;23.360;2022-09-30T06:55:00;29.88;;;17.73;;
36191;SDS011;22233;42.708;23.360;2022-09-30T06:57:25;31.40;;;19.52;;
36191;SDS011;22233;42.708;23.360;2022-09-30T06:59:51;29.45;;;18.50;;
36191;SDS011;22233;42.708;23.360;2022-09-30T07:02:18;32.70;;;18.93;;
36191;SDS011;22233;42.708;23.360;2022-09-30T07:04:44;30.80;;;19.30;;
36191;SDS011;22233;42.708;23.360;2022-09-30T07:07:10;26.88;;;18.85;;
36191;SDS011;22233;42.708;23.360;2022-09-30T07:09:36;36.05;;;21.08;;
36191;SDS011;22233;42.708;23.360;2022-09-30T07:12:01;33.53;;;21.15;;
36191;SDS011;22233;42.708;23.360;2022-09-30T07:14:27;34.08;;;21.98;;
36191;SDS011;22233;42.708;23.360;2022-09-30T07:16:54;30.85;;;21.05;;
36191;SDS011;22233;42.708;23.360;2022-09-30T07:19:19;33.53;;;21.45;;
36191;SDS011;22233;42.708;23.360;2022-09-30T07:21:48;35.45;;;22.58;;
36191;SDS011;22233;42.708;23.360;2022-09-30T07:24:14;34.47;;;23.02;;
36191;SDS011;22233;42.708;23.360;2022-09-30T07:26:40;36.15;;;25.70;;
36191;SDS011;22233;42.708;23.360;2022-09-30T07:29:05;35.85;;;24.52;;
36191;SDS011;22233;42.708;23.360;2022-09-30T07:31:31;34.45;;;23.33;;
36191;SDS011;22233;42.708;23.360;2022-09-30T07:33:58;32.28;;;23.13;;
36191;SDS011;22233;42.708;23.360;2022-09-30T07:36:24;34.88;;;24.23;;
36191;SDS011;22233;42.708;23.360;2022-09-30T07:38:54;33.08;;;23.25;;
36191;SDS011;22233;42.708;23.360;2022-09-30T07:41:23;31.50;;;23.67;;
36191;SDS011;22233;42.708;23.360;2022-09-30T07:43:51;36.15;;;25.45;;
36191;SDS011;22233;42.708;23.360;2022-09-30T07:46:22;40.28;;;26.27;;
36191;SDS011;22233;42.708;23.360;2022-09-30T07:48:54;36.75;;;27.52;;
36191;SDS011;22233;42.708;23.360;2022-09-30T07:51:29;31.30;;;22.35;;
36191;SDS011;22233;42.708;23.360;2022-09-30T07:54:00;32.15;;;22.17;;
36191;SDS011;22233;42.708;23.360;2022-09-30T07:56:27;29.55;;;22.75;;
36191;SDS011;22233;42.708;23.360;2022-09-30T07:58:54;28.85;;;21.10;;
36191;SDS011;22233;42.708;23.360;2022-09-30T08:01:21;29.05;;;21.40;;
36191;SDS011;22233;42.708;23.360;2022-09-30T08:03:51;27.05;;;21.20;;
36191;SDS011;22233;42.708;23.360;2022-09-30T08:06:18;25.10;;;20.85;;
36191;SDS011;22233;42.708;23.360;2022-09-30T08:08:45;26.35;;;19.63;;
36191;SDS011;22233;42.708;23.360;2022-09-30T08:11:11;20.08;;;16.58;;
36191;SDS011;22233;42.708;23.360;2022-09-30T08:13:38;22.73;;;16.77;;
36191;SDS011;22233;42.708;23.360;2022-09-30T08:16:04;22.92;;;16.98;;
36191;SDS011;22233;42.708;23.360;2022-09-30T08:18:30;26.05;;;19.15;;
36191;SDS011;22233;42.708;23.360;2022-09-30T08:20:56;24.42;;;17.65;;
36191;SDS011;22233;42.708;23.360;2022-09-30T08:23:21;22.05;;;17.13;;
36191;SDS011;22233;42.708;23.360;2022-09-30T08:25:47;20.80;;;17.02;;
36191;SDS011;22233;42.708;23.360;2022-09-30T08:28:13;23.92;;;18.70;;
36191;SDS011;22233;42.708;23.360;2022-09-30T08:30:39;20.10;;;14.80;;
36191;SDS011;22233;42.708;23.360;2022-09-30T08:33:05;17.77;;;14.27;;
36191;SDS011;22233;42.708;23.360;2022-09-30T08:35:33;18.73;;;13.82;;
36191;SDS011;22233;42.708;23.360;2022-09-30T08:37:59;17.92;;;14.38;;
36191;SDS011;22233;42.708;23.360;2022-09-30T08:40:27;22.45;;;16.05;;
36191;SDS011;22233;42.708;23.360;2022-09-30T08:53:22;14.68;;;11.00;;
36191;SDS011;22233;42.708;23.360;2022-09-30T08:55:54;13.25;;;11.15;;
36191;SDS011;22233;42.708;23.360;2022-09-30T08:58:34;14.80;;;9.63;;
36191;SDS011;22233;42.708;23.360;2022-09-30T09:01:04;12.60;;;9.85;;
36191;SDS011;22233;42.708;23.360;2022-09-30T09:03:39;14.10;;;11.30;;
36191;SDS011;22233;42.708;23.360;2022-09-30T09:06:19;20.92;;;13.77;;
36191;SDS011;22233;42.708;23.360;2022-09-30T09:12:43;21.95;;;18.50;;
36191;SDS011;22233;42.708;23.360;2022-09-30T09:14:55;26.42;;;19.02;;
36191;SDS011;22233;42.708;23.360;2022-09-30T09:22:35;17.90;;;14.25;;
36191;SDS011;22233;42.708;23.360;2022-09-30T09:25:02;16.00;;;12.35;;
36191;SDS011;22233;42.708;23.360;2022-09-30T09:28:15;13.85;;;12.15;;
36191;SDS011;22233;42.708;23.360;2022-09-30T09:30:39;18.80;;;12.00;;
36191;SDS011;22233;42.708;23.360;2022-09-30T09:33:15;15.50;;;9.57;;
36191;SDS011;22233;42.708;23.360;2022-09-30T09:39:00;12.70;;;9.07;;
36191;SDS011;22233;42.708;23.360;2022-09-30T09:47:10;12.05;;;8.40;;
36191;SDS011;22233;42.708;23.360;2022-09-30T09:50:03;8.70;;;7.75;;
36191;SDS011;22233;42.708;23.360;2022-09-30T09:52:33;10.95;;;7.30;;
36191;SDS011;22233;42.708;23.360;2022-09-30T09:55:07;11.77;;;7.60;;
36191;SDS011;22233;42.708;23.360;2022-09-30T09:57:35;12.98;;;7.85;;
36191;SDS011;22233;42.708;23.360;2022-09-30T10:05:28;13.43;;;8.07;;
36191;SDS011;22233;42.708;23.360;2022-09-30T10:13:15;7.15;;;6.38;;
36191;SDS011;22233;42.708;23.360;2022-09-30T10:15:42;10.15;;;5.90;;
36191;SDS011;22233;42.708;23.360;2022-09-30T10:18:12;8.05;;;5.57;;
36191;SDS011;22233;42.708;23.360;2022-09-30T10:20:48;6.32;;;5.07;;
36191;SDS011;22233;42.708;23.360;2022-09-30T10:23:19;10.35;;;6.60;;
36191;SDS011;22233;42.708;23.360;2022-09-30T10:28:46;8.30;;;4.15;;
36191;SDS011;22233;42.708;23.360;2022-09-30T10:33:45;6.97;;;4.68;;
36191;SDS011;22233;42.708;23.360;2022-09-30T10:36:21;4.15;;;2.92;;
36191;SDS011;22233;42.708;23.360;2022-09-30T10:38:57;5.82;;;2.90;;
36191;SDS011;22233;42.708;23.360;2022-09-30T10:41:26;6.13;;;3.00;;
36191;SDS011;22233;42.708;23.360;2022-09-30T10:43:55;4.10;;;3.10;;
36191;SDS011;22233;42.708;23.360;2022-09-30T10:46:24;11.25;;;7.15;;
36191;SDS011;22233;42.708;23.360;2022-09-30T10:48:53;12.15;;;9.60;;
36191;SDS011;22233;42.708;23.360;2022-09-30T10:51:25;4.53;;;2.75;;
36191;SDS011;22233;42.708;23.360;2022-09-30T10:53:53;3.92;;;2.47;;
36191;SDS011;22233;42.708;23.360;2022-09-30T10:59:02;3.50;;;2.38;;
36191;SDS011;22233;42.708;23.360;2022-09-30T11:01:31;6.25;;;2.67;;
36191;SDS011;22233;42.708;23.360;2022-09-30T11:06:30;4.85;;;3.20;;
36191;SDS011;22233;42.708;23.360;2022-09-30T11:17:09;4.93;;;2.50;;
36191;SDS011;22233;42.708;23.360;2022-09-30T11:20:18;4.03;;;2.70;;
36191;SDS011;22233;42.708;23.360;2022-09-30T11:25:07;4.10;;;2.85;;
36191;SDS011;22233;42.708;23.360;2022-09-30T11:32:51;4.15;;;2.22;;
36191;SDS011;22233;42.708;23.360;2022-09-30T11:40:55;4.45;;;2.10;;
36191;SDS011;22233;42.708;23.360;2022-09-30T11:43:56;3.22;;;2.30;;
36191;SDS011;22233;42.708;23.360;2022-09-30T11:49:21;4.18;;;1.58;;
36191;SDS011;22233;42.708;23.360;2022-09-30T11:57:33;2.88;;;1.40;;
36191;SDS011;22233;42.708;23.360;2022-09-30T12:00:19;4.35;;;1.35;;
36191;SDS011;22233;42.708;23.360;2022-09-30T12:05:26;3.83;;;1.40;;
36191;SDS011;22233;42.708;23.360;2022-09-30T12:10:41;3.50;;;1.45;;
36191;SDS011;22233;42.708;23.360;2022-09-30T12:13:18;2.75;;;1.25;;
36191;SDS011;22233;42.708;23.360;2022-09-30T12:15:57;2.95;;;1.20;;
36191;SDS011;22233;42.708;23.360;2022-09-30T12:18:25;1.75;;;1.20;;
36191;SDS011;22233;42.708;23.360;2022-09-30T12:20:55;4.07;;;1.50;;
36191;SDS011;22233;42.708;23.360;2022-09-30T12:23:31;2.85;;;1.50;;
36191;SDS011;22233;42.708;23.360;2022-09-30T12:26:03;3.40;;;1.40;;
36191;SDS011;22233;42.708;23.360;2022-09-30T12:39:39;2.55;;;1.50;;
36191;SDS011;22233;42.708;23.360;2022-09-30T12:50:00;6.40;;;1.50;;
36191;SDS011;22233;42.708;23.360;2022-09-30T12:52:31;3.42;;;1.58;;
36191;SDS011;22233;42.708;23.360;2022-09-30T12:55:00;1.73;;;1.23;;
36191;SDS011;22233;42.708;23.360;2022-09-30T12:57:32;6.28;;;1.90;;
36191;SDS011;22233;42.708;23.360;2022-09-30T13:00:13;3.85;;;1.20;;
36191;SDS011;22233;42.708;23.360;2022-09-30T13:02:56;4.28;;;1.40;;
36191;SDS011;22233;42.708;23.360;2022-09-30T13:05:37;2.88;;;1.60;;
36191;SDS011;22233;42.708;23.360;2022-09-30T13:15:47;3.15;;;1.33;;
36191;SDS011;22233;42.708;23.360;2022-09-30T13:31:24;4.32;;;1.63;;
36191;SDS011;22233;42.708;23.360;2022-09-30T13:36:27;4.50;;;1.40;;
36191;SDS011;22233;42.708;23.360;2022-09-30T13:42:00;2.40;;;1.17;;
36191;SDS011;22233;42.708;23.360;2022-09-30T13:52:52;2.40;;;1.00;;
36191;SDS011;22233;42.708;23.360;2022-09-30T13:55:23;2.45;;;1.20;;
36191;SDS011;22233;42.708;23.360;2022-09-30T14:11:38;4.00;;;1.30;;
36191;SDS011;22233;42.708;23.360;2022-09-30T14:14:27;2.13;;;1.30;;
36191;SDS011;22233;42.708;23.360;2022-09-30T14:22:26;5.45;;;1.63;;
36191;SDS011;22233;42.708;23.360;2022-09-30T14:32:13;4.43;;;1.45;;
36191;SDS011;22233;42.708;23.360;2022-09-30T14:34:44;5.10;;;1.60;;
36191;SDS011;22233;42.708;23.360;2022-09-30T14:37:13;1.73;;;1.50;;
36191;SDS011;22233;42.708;23.360;2022-09-30T14:39:46;2.15;;;1.50;;
36191;SDS011;22233;42.708;23.360;2022-09-30T14:42:13;4.00;;;2.23;;
36191;SDS011;22233;42.708;23.360;2022-09-30T14:44:48;3.60;;;1.40;;
36191;SDS011;22233;42.708;23.360;2022-09-30T14:47:14;6.28;;;1.50;;
36191;SDS011;22233;42.708;23.360;2022-09-30T14:49:42;4.30;;;2.72;;
36191;SDS011;22233;42.708;23.360;2022-09-30T14:52:50;2.55;;;1.20;;
36191;SDS011;22233;42.708;23.360;2022-09-30T14:55:22;2.45;;;1.67;;
36191;SDS011;22233;42.708;23.360;2022-09-30T15:01:11;3.08;;;1.58;;
36191;SDS011;22233;42.708;23.360;2022-09-30T15:03:40;1.85;;;1.30;;
36191;SDS011;22233;42.708;23.360;2022-09-30T15:06:19;4.80;;;1.75;;
36191;SDS011;22233;42.708;23.360;2022-09-30T15:08:47;3.17;;;1.27;;
36191;SDS011;22233;42.708;23.360;2022-09-30T15:11:17;3.53;;;1.80;;
36191;SDS011;22233;42.708;23.360;2022-09-30T15:13:45;4.55;;;1.70;;
36191;SDS011;22233;42.708;23.360;2022-09-30T15:16:25;3.95;;;1.48;;
36191;SDS011;22233;42.708;23.360;2022-09-30T15:18:52;3.78;;;1.60;;
36191;SDS011;22233;42.708;23.360;2022-09-30T15:21:18;2.13;;;1.55;;
36191;SDS011;22233;42.708;23.360;2022-09-30T15:23:47;5.00;;;1.48;;
36191;SDS011;22233;42.708;23.360;2022-09-30T15:26:18;5.90;;;2.30;;
36191;SDS011;22233;42.708;23.360;2022-09-30T15:28:46;3.95;;;1.70;;
36191;SDS011;22233;42.708;23.360;2022-09-30T15:31:27;4.47;;;2.70;;
36191;SDS011;22233;42.708;23.360;2022-09-30T15:34:02;4.78;;;2.63;;
36191;SDS011;22233;42.708;23.360;2022-09-30T15:36:36;9.98;;;6.57;;
36191;SDS011;22233;42.708;23.360;2022-09-30T15:39:03;6.50;;;2.40;;
36191;SDS011;22233;42.708;23.360;2022-09-30T15:41:37;9.38;;;2.70;;
36191;SDS011;22233;42.708;23.360;2022-09-30T15:44:05;9.23;;;5.43;;
36191;SDS011;22233;42.708;23.360;2022-09-30T15:46:41;3.28;;;1.95;;
36191;SDS011;22233;42.708;23.360;2022-09-30T15:49:33;8.05;;;3.45;;
36191;SDS011;22233;42.708;23.360;2022-09-30T15:54:51;7.65;;;2.72;;
36191;SDS011;22233;42.708;23.360;2022-09-30T16:00:29;4.03;;;2.05;;
36191;SDS011;22233;42.708;23.360;2022-09-30T16:03:06;5.70;;;2.42;;
36191;SDS011;22233;42.708;23.360;2022-09-30T16:06:09;4.10;;;2.37;;
36191;SDS011;22233;42.708;23.360;2022-09-30T16:08:43;8.43;;;4.32;;
36191;SDS011;22233;42.708;23.360;2022-09-30T16:11:25;8.73;;;4.15;;
36191;SDS011;22233;42.708;23.360;2022-09-30T16:13:54;10.75;;;4.25;;
36191;SDS011;22233;42.708;23.360;2022-09-30T16:16:22;6.63;;;4.22;;
36191;SDS011;22233;42.708;23.360;2022-09-30T16:18:51;10.35;;;4.07;;
36191;SDS011;22233;42.708;23.360;2022-09-30T16:26:53;8.23;;;3.72;;
36191;SDS011;22233;42.708;23.360;2022-09-30T16:29:20;9.70;;;3.97;;
36191;SDS011;22233;42.708;23.360;2022-09-30T16:31:47;5.60;;;3.95;;
36191;SDS011;22233;42.708;23.360;2022-09-30T16:34:21;10.80;;;4.07;;
36191;SDS011;22233;42.708;23.360;2022-09-30T16:36:49;8.07;;;3.88;;
36191;SDS011;22233;42.708;23.360;2022-09-30T16:39:16;8.13;;;4.70;;
36191;SDS011;22233;42.708;23.360;2022-09-30T16:41:42;9.07;;;4.68;;
36191;SDS011;22233;42.708;23.360;2022-09-30T16:44:08;11.90;;;3.90;;
36191;SDS011;22233;42.708;23.360;2022-09-30T16:46:34;9.17;;;3.63;;
36191;SDS011;22233;42.708;23.360;2022-09-30T16:49:16;8.30;;;3.45;;
36191;SDS011;22233;42.708;23.360;2022-09-30T16:51:42;8.43;;;3.28;;
36191;SDS011;22233;42.708;23.360;2022-09-30T16:54:08;7.60;;;3.80;;
36191;SDS011;22233;42.708;23.360;2022-09-30T16:56:35;6.35;;;3.65;;
36191;SDS011;22233;42.708;23.360;2022-09-30T16:59:00;6.93;;;3.95;;
36191;SDS011;22233;42.708;23.360;2022-09-30T17:01:27;9.05;;;3.45;;
36191;SDS011;22233;42.708;23.360;2022-09-30T17:03:54;8.30;;;3.90;;
36191;SDS011;22233;42.708;23.360;2022-09-30T17:06:25;6.50;;;3.83;;
36191;SDS011;22233;42.708;23.360;2022-09-30T17:08:52;7.78;;;4.50;;
36191;SDS011;22233;42.708;23.360;2022-09-30T17:11:19;9.38;;;4.85;;
36191;SDS011;22233;42.708;23.360;2022-09-30T17:13:51;11.32;;;5.43;;
36191;SDS011;22233;42.708;23.360;2022-09-30T17:16:16;10.23;;;4.07;;
36191;SDS011;22233;42.708;23.360;2022-09-30T17:18:42;9.13;;;4.35;;
36191;SDS011;22233;42.708;23.360;2022-09-30T17:21:07;9.20;;;4.70;;
36191;SDS011;22233;42.708;23.360;2022-09-30T17:23:33;10.50;;;4.80;;
36191;SDS011;22233;42.708;23.360;2022-09-30T17:25:58;10.40;;;4.07;;
36191;SDS011;22233;42.708;23.360;2022-09-30T17:28:23;12.82;;;4.05;;
36191;SDS011;22233;42.708;23.360;2022-09-30T17:30:49;13.27;;;4.40;;
36191;SDS011;22233;42.708;23.360;2022-09-30T17:33:15;6.07;;;3.63;;
36191;SDS011;22233;42.708;23.360;2022-09-30T17:35:42;8.70;;;3.83;;
36191;SDS011;22233;42.708;23.360;2022-09-30T17:38:08;8.30;;;3.85;;
36191;SDS011;22233;42.708;23.360;2022-09-30T17:40:35;6.75;;;4.38;;
36191;SDS011;22233;42.708;23.360;2022-09-30T17:43:19;7.18;;;4.28;;
36191;SDS011;22233;42.708;23.360;2022-09-30T17:45:45;7.25;;;4.32;;
36191;SDS011;22233;42.708;23.360;2022-09-30T17:48:12;8.32;;;4.32;;
36191;SDS011;22233;42.708;23.360;2022-09-30T17:50:39;13.27;;;7.53;;
36191;SDS011;22233;42.708;23.360;2022-09-30T17:53:06;26.60;;;10.02;;
36191;SDS011;22233;42.708;23.360;2022-09-30T17:55:32;16.27;;;10.02;;
36191;SDS011;22233;42.708;23.360;2022-09-30T17:57:59;18.40;;;8.38;;
36191;SDS011;22233;42.708;23.360;2022-09-30T18:00:27;16.75;;;6.85;;
36191;SDS011;22233;42.708;23.360;2022-09-30T18:02:53;14.60;;;7.85;;
36191;SDS011;22233;42.708;23.360;2022-09-30T18:05:19;13.88;;;7.60;;
36191;SDS011;22233;42.708;23.360;2022-09-30T18:07:45;18.95;;;8.00;;
36191;SDS011;22233;42.708;23.360;2022-09-30T18:10:11;18.80;;;7.38;;
36191;SDS011;22233;42.708;23.360;2022-09-30T18:12:37;14.68;;;7.82;;
36191;SDS011;22233;42.708;23.360;2022-09-30T18:15:03;11.38;;;5.65;;
36191;SDS011;22233;42.708;23.360;2022-09-30T18:17:30;16.50;;;7.55;;
36191;SDS011;22233;42.708;23.360;2022-09-30T18:19:55;14.43;;;6.50;;
36191;SDS011;22233;42.708;23.360;2022-09-30T18:22:20;16.05;;;6.47;;
36191;SDS011;22233;42.708;23.360;2022-09-30T18:24:46;13.38;;;6.78;;
36191;SDS011;22233;42.708;23.360;2022-09-30T18:27:29;10.40;;;6.32;;
36191;SDS011;22233;42.708;23.360;2022-09-30T18:29:58;15.93;;;8.57;;
36191;SDS011;22233;42.708;23.360;2022-09-30T18:34:52;14.45;;;8.43;;
36191;SDS011;22233;42.708;23.360;2022-09-30T18:37:20;20.63;;;7.32;;
36191;SDS011;22233;42.708;23.360;2022-09-30T18:39:46;16.55;;;8.13;;
36191;SDS011;22233;42.708;23.360;2022-09-30T18:42:11;12.93;;;7.07;;
36191;SDS011;22233;42.708;23.360;2022-09-30T18:44:37;13.20;;;8.35;;
36191;SDS011;22233;42.708;23.360;2022-09-30T18:47:04;16.80;;;8.85;;